Time;durP1;ratioP1;P1;durP2;ratioP2;P2;SDS_P1;SDS_P2;PMS_P1;PMS_P2;Temp;Humidity;BMP_temperature;BMP_pressure;BME280_temperature;BME280_humidity;BME280_pressure;Samples;Min_cycle;Max_cycle;Signal;HPM_P1;HPM_P2
2022/06/13 00:00:32;;;;;;;;;7.75;6.75;;;;;;;;5138951;27;8785;-57
2022/06/13 00:03:26;;;;;;;;;9.00;6.75;;;;;;;;5138847;27;8800;-56
2022/06/13 00:06:10;;;;;;;;;6.00;5.25;;;;;;;;5138985;27;8788;-56
2022/06/13 00:08:57;;;;;;;;;8.00;5.00;;;;;;;;5139114;27;8769;-57
2022/06/13 00:11:51;;;;;;;;;6.00;6.00;;;;;;;;5139118;27;8785;-55
2022/06/13 00:14:36;;;;;;;;;6.25;6.00;;;;;;;;5139053;27;8789;-57
2022/06/13 00:17:20;;;;;;;;;12.50;8.75;;;;;;;;5138569;27;9567;-56
2022/06/13 00:20:06;;;;;;;;;10.00;6.00;;;;;;;;5138526;27;8772;-57
2022/06/13 00:22:52;;;;;;;;;13.00;7.00;;;;;;;;5138242;27;8760;-58
2022/06/13 00:25:36;;;;;;;;;11.75;10.00;;;;;;;;5138445;27;8792;-57
2022/06/13 00:28:23;;;;;;;;;9.00;8.00;;;;;;;;5138494;27;8796;-56
2022/06/13 00:31:07;;;;;;;;;9.25;7.50;;;;;;;;5138541;27;8776;-56
2022/06/13 00:33:52;;;;;;;;;11.25;9.75;;;;;;;;5138396;27;8788;-58
2022/06/13 00:36:42;;;;;;;;;13.25;9.25;;;;;;;;5138213;27;8800;-57
2022/06/13 00:39:28;;;;;;;;;12.75;10.75;;;;;;;;5138324;27;8765;-58
2022/06/13 00:42:16;;;;;;;;;11.75;10.00;;;;;;;;5138229;27;8784;-57
2022/06/13 00:45:20;;;;;;;;;12.75;11.50;;;;;;;;5137961;27;8772;-56
2022/06/13 00:51:23;;;;;;;;;21.75;15.00;;;;;;;;5120671;27;8796;-55
2022/06/13 00:54:08;;;;;;;;;16.00;12.25;;;;;;;;5137340;27;8769;-57
2022/06/13 00:56:58;;;;;;;;;16.00;13.00;;;;;;;;5136797;27;8816;-55
2022/06/13 00:59:44;;;;;;;;;10.00;10.00;;;;;;;;5136781;27;8789;-55
2022/06/13 01:02:28;;;;;;;;;9.25;8.25;;;;;;;;5137994;27;8780;-57
2022/06/13 01:05:19;;;;;;;;;11.00;10.25;;;;;;;;5137759;27;9575;-58
2022/06/13 01:08:08;;;;;;;;;13.00;8.75;;;;;;;;5137759;27;8777;-57
2022/06/13 01:14:18;;;;;;;;;11.50;10.50;;;;;;;;5137292;27;8757;-56
2022/06/13 01:17:05;;;;;;;;;11.00;10.00;;;;;;;;5137338;27;8785;-56
2022/06/13 01:20:12;;;;;;;;;9.25;9.25;;;;;;;;5137051;27;8800;-57
2022/06/13 01:23:09;;;;;;;;;10.50;9.00;;;;;;;;5136709;27;8781;-55
2022/06/13 01:25:53;;;;;;;;;6.25;4.75;;;;;;;;5137391;27;9579;-57
2022/06/13 01:28:55;;;;;;;;;9.00;7.75;;;;;;;;5137821;27;8781;-58
2022/06/13 01:31:40;;;;;;;;;5.00;5.00;;;;;;;;5137901;27;8781;-57
2022/06/13 01:34:36;;;;;;;;;7.75;6.50;;;;;;;;5137843;27;8777;-56
2022/06/13 01:37:30;;;;;;;;;9.25;4.75;;;;;;;;5137615;27;8808;-58
2022/06/13 01:40:27;;;;;;;;;4.00;4.00;;;;;;;;5137301;27;9572;-55
2022/06/13 01:43:26;;;;;;;;;4.50;4.50;;;;;;;;5137088;27;8797;-56
2022/06/13 01:46:28;;;;;;;;;8.50;6.25;;;;;;;;5137438;27;8824;-57
2022/06/13 01:49:21;;;;;;;;;7.25;7.00;;;;;;;;5137343;27;8785;-56
2022/06/13 01:52:28;;;;;;;;;7.75;6.50;;;;;;;;5137119;27;8773;-56
2022/06/13 01:55:39;;;;;;;;;6.00;4.25;;;;;;;;5136456;27;8801;-57
2022/06/13 01:58:23;;;;;;;;;9.25;8.00;;;;;;;;5096133;28;8803;-55
2022/06/13 02:01:12;;;;;;;;;8.25;8.25;;;;;;;;5096128;28;8799;-56
2022/06/13 02:04:05;;;;;;;;;10.25;9.25;;;;;;;;5096280;28;8787;-57
2022/06/13 02:07:15;;;;;;;;;11.75;9.25;;;;;;;;5096090;28;8846;-58
2022/06/13 02:10:02;;;;;;;;;14.25;11.00;;;;;;;;5018158;28;8813;-58
2022/06/13 02:12:51;;;;;;;;;14.50;11.00;;;;;;;;5099609;28;8779;-57
2022/06/13 02:15:40;;;;;;;;;13.00;9.00;;;;;;;;5099653;28;8901;-57
2022/06/13 02:18:28;;;;;;;;;12.25;11.25;;;;;;;;5099614;28;8799;-57
2022/06/13 02:21:14;;;;;;;;;10.00;10.00;;;;;;;;5099370;28;8784;-58
2022/06/13 02:24:04;;;;;;;;;12.50;11.25;;;;;;;;5099647;28;8772;-56
2022/06/13 02:26:50;;;;;;;;;14.50;13.75;;;;;;;;5099673;28;9706;-56
2022/06/13 02:29:38;;;;;;;;;12.25;11.00;;;;;;;;5098923;28;8780;-57
2022/06/13 02:32:26;;;;;;;;;12.25;11.00;;;;;;;;5099305;28;8792;-57
2022/06/13 02:35:20;;;;;;;;;10.25;9.25;;;;;;;;5099556;28;8807;-55
2022/06/13 02:38:12;;;;;;;;;13.25;11.75;;;;;;;;5099273;28;8787;-56
2022/06/13 02:41:01;;;;;;;;;10.75;9.75;;;;;;;;5098395;28;8775;-57
2022/06/13 02:43:45;;;;;;;;;12.25;11.25;;;;;;;;5099123;28;8784;-54
2022/06/13 02:46:49;;;;;;;;;13.50;9.50;;;;;;;;5098384;28;8791;-56
2022/06/13 02:49:41;;;;;;;;;10.50;9.00;;;;;;;;5098719;28;8760;-58
2022/06/13 02:52:44;;;;;;;;;12.00;10.00;;;;;;;;5098606;28;8788;-58
2022/06/13 02:55:41;;;;;;;;;10.50;9.75;;;;;;;;5098803;28;8811;-56
2022/06/13 02:58:36;;;;;;;;;12.25;9.75;;;;;;;;5098479;28;8775;-56
2022/06/13 03:01:27;;;;;;;;;12.75;9.25;;;;;;;;5098999;28;8783;-55
2022/06/13 03:04:29;;;;;;;;;10.75;10.75;;;;;;;;5098915;28;8783;-58
2022/06/13 03:07:19;;;;;;;;;14.50;10.00;;;;;;;;5098964;28;8787;-56
2022/06/13 03:10:18;;;;;;;;;14.00;10.75;;;;;;;;5098238;28;8772;-56
2022/06/13 03:13:19;;;;;;;;;12.25;9.75;;;;;;;;5098626;28;8799;-57
2022/06/13 03:16:27;;;;;;;;;11.00;10.00;;;;;;;;5098553;28;9552;-56
2022/06/13 03:19:17;;;;;;;;;11.75;10.50;;;;;;;;5098726;28;8795;-56
2022/06/13 03:22:41;;;;;;;;;17.50;11.50;;;;;;;;5097908;28;8783;-56
2022/06/13 03:25:52;;;;;;;;;12.00;10.50;;;;;;;;5098073;28;8787;-56
2022/06/13 03:28:36;;;;;;;;;13.00;10.50;;;;;;;;5098187;28;8795;-57
2022/06/13 03:31:46;;;;;;;;;15.75;13.75;;;;;;;;5097979;28;8913;-55
2022/06/13 03:34:51;;;;;;;;;14.00;14.00;;;;;;;;5097915;28;8802;-57
2022/06/13 03:37:44;;;;;;;;;15.25;13.00;;;;;;;;5098016;28;8792;-58
2022/06/13 03:40:43;;;;;;;;;14.50;13.25;;;;;;;;5097750;28;8792;-58
2022/06/13 03:43:42;;;;;;;;;14.25;11.25;;;;;;;;5096977;28;8799;-56
2022/06/13 03:46:42;;;;;;;;;20.25;14.00;;;;;;;;5097534;28;8796;-57
2022/06/13 03:49:33;;;;;;;;;17.25;15.00;;;;;;;;5097665;28;8795;-57
2022/06/13 03:52:18;;;;;;;;;19.00;13.75;;;;;;;;5097703;28;8783;-58
2022/06/13 03:55:05;;;;;;;;;21.75;17.25;;;;;;;;5097266;28;8783;-58
2022/06/13 03:58:10;;;;;;;;;22.50;14.75;;;;;;;;5134260;27;8801;-57
2022/06/13 04:01:22;;;;;;;;;19.75;16.00;;;;;;;;5138413;27;9540;-57
2022/06/13 04:04:13;;;;;;;;;21.00;17.25;;;;;;;;5138370;27;8796;-58
2022/06/13 04:07:00;;;;;;;;;22.75;19.25;;;;;;;;5138488;27;8793;-58
2022/06/13 04:09:49;;;;;;;;;20.50;16.50;;;;;;;;5138472;27;8784;-57
2022/06/13 04:12:37;;;;;;;;;21.00;18.00;;;;;;;;5138264;27;8769;-54
2022/06/13 04:15:40;;;;;;;;;21.25;19.50;;;;;;;;5137911;27;8800;-54
2022/06/13 04:18:41;;;;;;;;;19.00;18.50;;;;;;;;5138034;27;8800;-58
2022/06/13 04:21:33;;;;;;;;;25.00;22.75;;;;;;;;5138199;27;8792;-57
2022/06/13 04:24:49;;;;;;;;;19.00;18.50;;;;;;;;5138169;27;8792;-56
2022/06/13 04:27:35;;;;;;;;;24.50;22.50;;;;;;;;5034439;28;8804;-57
2022/06/13 04:30:21;;;;;;;;;27.00;25.00;;;;;;;;5070994;27;8832;-56
2022/06/13 04:33:27;;;;;;;;;27.00;24.75;;;;;;;;5131217;27;8793;-55
2022/06/13 04:36:14;;;;;;;;;26.25;23.50;;;;;;;;5134199;27;8808;-55
2022/06/13 04:39:05;;;;;;;;;25.25;20.00;;;;;;;;5132083;27;8765;-58
2022/06/13 04:41:53;;;;;;;;;20.75;20.25;;;;;;;;5137029;27;8777;-56
2022/06/13 04:44:39;;;;;;;;;27.25;22.50;;;;;;;;5137872;27;8761;-57
2022/06/13 04:47:26;;;;;;;;;29.00;23.00;;;;;;;;5137881;27;8776;-57
2022/06/13 04:50:19;;;;;;;;;24.50;23.00;;;;;;;;5137925;27;8785;-58
2022/06/13 04:53:14;;;;;;;;;26.50;23.75;;;;;;;;5137655;27;8760;-57
2022/06/13 04:55:59;;;;;;;;;25.00;21.75;;;;;;;;5135279;27;8797;-56
2022/06/13 04:58:46;;;;;;;;;27.25;25.50;;;;;;;;5137768;27;8793;-56
2022/06/13 05:01:40;;;;;;;;;24.75;21.50;;;;;;;;5137852;27;8792;-56
2022/06/13 05:04:30;;;;;;;;;31.00;24.50;;;;;;;;5137886;27;8797;-56
2022/06/13 05:07:16;;;;;;;;;21.75;20.00;;;;;;;;5137924;27;8781;-55
2022/06/13 05:10:06;;;;;;;;;28.00;25.50;;;;;;;;5137821;27;8793;-54
2022/06/13 05:13:01;;;;;;;;;30.50;28.25;;;;;;;;5137319;27;8793;-57
2022/06/13 05:15:53;;;;;;;;;31.25;27.50;;;;;;;;5137437;27;8808;-54
2022/06/13 05:18:55;;;;;;;;;32.75;29.00;;;;;;;;5137399;27;8757;-57
2022/06/13 05:22:00;;;;;;;;;30.25;25.50;;;;;;;;5137005;27;8800;-55
2022/06/13 05:24:50;;;;;;;;;27.50;24.75;;;;;;;;5136909;27;8804;-56
2022/06/13 05:27:34;;;;;;;;;28.50;24.75;;;;;;;;5121368;27;8797;-56
2022/06/13 05:30:20;;;;;;;;;27.25;24.75;;;;;;;;5137023;27;9169;-55
2022/06/13 05:33:04;;;;;;;;;27.00;23.25;;;;;;;;5136959;27;8919;-56
2022/06/13 05:35:56;;;;;;;;;23.00;19.50;;;;;;;;5136938;27;8815;-56
2022/06/13 05:38:43;;;;;;;;;29.25;26.00;;;;;;;;5136658;27;8781;-56
2022/06/13 05:41:28;;;;;;;;;30.25;27.50;;;;;;;;5130829;27;8802;-57
2022/06/13 05:44:14;;;;;;;;;29.75;25.75;;;;;;;;5136984;27;8776;-57
2022/06/13 05:46:59;;;;;;;;;33.25;28.50;;;;;;;;5141291;27;8800;-57
2022/06/13 05:49:53;;;;;;;;;30.50;27.00;;;;;;;;5141282;27;8784;-56
2022/06/13 05:52:41;;;;;;;;;34.75;30.00;;;;;;;;5141293;27;8816;-55
2022/06/13 05:55:25;;;;;;;;;41.25;32.75;;;;;;;;5141082;27;8804;-55
2022/06/13 05:58:28;;;;;;;;;36.75;30.50;;;;;;;;5140617;27;8796;-56
2022/06/13 06:01:23;;;;;;;;;35.25;32.00;;;;;;;;5141030;27;8792;-57
2022/06/13 06:04:08;;;;;;;;;26.50;24.25;;;;;;;;5140817;27;8801;-56
2022/06/13 06:06:54;;;;;;;;;33.25;28.75;;;;;;;;5140841;27;8800;-53
2022/06/13 06:09:39;;;;;;;;;17.25;17.25;;;;;;;;5140467;27;8824;-56
2022/06/13 06:12:25;;;;;;;;;23.50;21.50;;;;;;;;5133706;27;8788;-56
2022/06/13 06:15:12;;;;;;;;;25.75;23.50;;;;;;;;5125840;27;9639;-56
2022/06/13 06:17:59;;;;;;;;;31.75;26.75;;;;;;;;5124847;27;8796;-55
2022/06/13 06:20:44;;;;;;;;;34.75;30.00;;;;;;;;5137695;27;8792;-56
2022/06/13 06:23:28;;;;;;;;;30.25;28.25;;;;;;;;5140017;27;8773;-56
2022/06/13 06:26:21;;;;;;;;;26.75;23.75;;;;;;;;5139997;27;8792;-55
2022/06/13 06:29:07;;;;;;;;;29.00;26.75;;;;;;;;5140264;27;8797;-56
2022/06/13 06:31:54;;;;;;;;;23.75;23.00;;;;;;;;5140748;27;8789;-55
2022/06/13 06:34:49;;;;;;;;;29.75;24.75;;;;;;;;5056720;28;8868;-55
2022/06/13 06:37:39;;;;;;;;;26.50;25.00;;;;;;;;5055843;28;8801;-55
2022/06/13 06:40:24;;;;;;;;;25.50;21.75;;;;;;;;5056760;28;8781;-56
2022/06/13 06:43:10;;;;;;;;;28.75;25.00;;;;;;;;5056468;28;9703;-55
2022/06/13 06:45:54;;;;;;;;;31.75;26.50;;;;;;;;5056418;28;8805;-56
2022/06/13 06:48:39;;;;;;;;;24.50;24.50;;;;;;;;5056307;28;8789;-56
2022/06/13 06:51:29;;;;;;;;;24.50;21.25;;;;;;;;5055473;28;8816;-56
2022/06/13 07:00:39;;;;;;;;;18.50;17.25;;;;;;;;5055997;28;8790;-55
2022/06/13 07:03:36;;;;;;;;;22.50;19.50;;;;;;;;5056145;28;8793;-56
2022/06/13 07:06:31;;;;;;;;;26.50;22.25;;;;;;;;5042253;28;8785;-56
2022/06/13 07:09:30;;;;;;;;;25.25;22.25;;;;;;;;5056086;28;8793;-55
2022/06/13 07:12:15;;;;;;;;;33.50;27.75;;;;;;;;5106958;27;8761;-57
2022/06/13 07:15:00;;;;;;;;;21.75;19.25;;;;;;;;5139912;27;9528;-56
2022/06/13 07:17:45;;;;;;;;;19.50;19.50;;;;;;;;5139869;27;8788;-55
2022/06/13 07:20:50;;;;;;;;;17.25;16.00;;;;;;;;5139851;27;8808;-55
2022/06/13 07:23:44;;;;;;;;;16.50;16.50;;;;;;;;5139560;27;8765;-56
2022/06/13 07:26:39;;;;;;;;;21.50;17.75;;;;;;;;5139448;27;8781;-55
2022/06/13 07:29:24;;;;;;;;;19.00;15.25;;;;;;;;5139928;27;8773;-56
2022/06/13 07:32:28;;;;;;;;;20.75;19.00;;;;;;;;5139615;27;8761;-56
2022/06/13 07:35:14;;;;;;;;;28.25;24.25;;;;;;;;5124017;27;8781;-56
2022/06/13 07:38:16;;;;;;;;;24.25;22.25;;;;;;;;5123565;27;8784;-56
2022/06/13 07:41:21;;;;;;;;;15.50;15.00;;;;;;;;5139377;27;8769;-56
2022/06/13 07:44:17;;;;;;;;;17.00;16.25;;;;;;;;5139120;27;8812;-56
2022/06/13 07:47:01;;;;;;;;;20.25;15.25;;;;;;;;5137106;27;8801;-56
2022/06/13 07:49:47;;;;;;;;;17.25;14.00;;;;;;;;5138855;27;8784;-55
2022/06/13 07:52:45;;;;;;;;;18.00;17.00;;;;;;;;5138860;27;8777;-56
2022/06/13 07:55:38;;;;;;;;;21.25;18.75;;;;;;;;5138861;27;8813;-57
2022/06/13 07:58:33;;;;;;;;;19.25;18.00;;;;;;;;5130612;27;8796;-55
2022/06/13 08:01:19;;;;;;;;;21.75;18.25;;;;;;;;5138625;27;8776;-55
2022/06/13 08:04:05;;;;;;;;;26.25;23.50;;;;;;;;5138424;27;8773;-56
2022/06/13 08:07:00;;;;;;;;;16.00;15.50;;;;;;;;5137984;27;8801;-55
2022/06/13 08:09:48;;;;;;;;;20.75;17.75;;;;;;;;5138596;27;8776;-56
2022/06/13 08:12:35;;;;;;;;;16.25;14.75;;;;;;;;5136786;27;8812;-56
2022/06/13 08:15:40;;;;;;;;;18.25;12.00;;;;;;;;5138090;27;8776;-56
2022/06/13 08:18:31;;;;;;;;;12.25;10.00;;;;;;;;5138028;27;8800;-56
2022/06/13 08:21:17;;;;;;;;;15.75;13.50;;;;;;;;5137970;27;9584;-55
2022/06/13 08:24:03;;;;;;;;;11.75;11.50;;;;;;;;5137911;27;8789;-56
2022/06/13 08:26:47;;;;;;;;;15.75;13.50;;;;;;;;5138192;27;8789;-57
2022/06/13 08:29:32;;;;;;;;;12.25;11.50;;;;;;;;5137829;27;8780;-56
2022/06/13 08:32:37;;;;;;;;;14.50;13.75;;;;;;;;5138002;27;8769;-55
2022/06/13 08:35:22;;;;;;;;;14.25;9.75;;;;;;;;5137881;27;8797;-56
2022/06/13 08:38:06;;;;;;;;;13.00;10.75;;;;;;;;5137275;27;8836;-55
2022/06/13 08:41:10;;;;;;;;;9.50;9.50;;;;;;;;5137963;27;8773;-56
2022/06/13 08:44:08;;;;;;;;;10.25;10.25;;;;;;;;5137985;27;8776;-55
2022/06/13 08:47:00;;;;;;;;;15.50;11.25;;;;;;;;5132184;27;8803;-55
2022/06/13 08:50:13;;;;;;;;;6.50;6.50;;;;;;;;5132845;27;8789;-55
2022/06/13 08:53:31;;;;;;;;;10.50;7.50;;;;;;;;5137957;27;8772;-55
2022/06/13 08:56:28;;;;;;;;;11.75;9.50;;;;;;;;5137000;27;9367;-55
2022/06/13 08:59:34;;;;;;;;;7.75;7.50;;;;;;;;5131365;27;8780;-55
2022/06/13 09:02:48;;;;;;;;;11.00;9.50;;;;;;;;5121967;27;8788;-56
2022/06/13 09:05:51;;;;;;;;;10.00;9.25;;;;;;;;5125332;27;8887;-55
2022/06/13 09:09:09;;;;;;;;;23.50;16.00;;;;;;;;5137047;27;8776;-55
2022/06/13 09:11:58;;;;;;;;;15.75;13.50;;;;;;;;5137701;27;9516;-55
2022/06/13 09:14:50;;;;;;;;;11.25;9.25;;;;;;;;5137214;27;8757;-55
2022/06/13 09:17:37;;;;;;;;;11.75;9.75;;;;;;;;5122211;27;8796;-46
2022/06/13 09:20:35;;;;;;;;;12.25;9.50;;;;;;;;5139549;27;8792;-50
2022/06/13 09:23:34;;;;;;;;;13.50;7.50;;;;;;;;5141421;27;8772;-52
2022/06/13 09:26:38;;;;;;;;;13.50;9.75;;;;;;;;5141159;27;8797;-49
2022/06/13 09:29:34;;;;;;;;;10.00;9.50;;;;;;;;5138970;27;8792;-48
2022/06/13 09:32:20;;;;;;;;;10.75;9.75;;;;;;;;5141615;27;8781;-50
2022/06/13 09:35:12;;;;;;;;;11.00;9.75;;;;;;;;5141527;27;8773;-51
2022/06/13 09:38:08;;;;;;;;;15.50;12.25;;;;;;;;5141772;27;8773;-48
2022/06/13 09:41:09;;;;;;;;;14.75;14.25;;;;;;;;5141568;27;8769;-49
2022/06/13 09:43:53;;;;;;;;;10.50;10.50;;;;;;;;5141647;27;8784;-53
2022/06/13 09:46:37;;;;;;;;;10.00;9.75;;;;;;;;5141581;27;8909;-51
2022/06/13 09:49:36;;;;;;;;;12.75;9.25;;;;;;;;5141247;27;8776;-50
2022/06/13 09:52:37;;;;;;;;;11.00;8.50;;;;;;;;5140400;27;8907;-49
2022/06/13 09:55:21;;;;;;;;;10.00;9.00;;;;;;;;5141158;27;9556;-51
2022/06/13 09:58:15;;;;;;;;;10.00;9.00;;;;;;;;5140881;27;8805;-50
2022/06/13 10:01:35;;;;;;;;;12.75;9.75;;;;;;;;5141028;27;8784;-48
2022/06/13 10:04:44;;;;;;;;;10.25;10.00;;;;;;;;5057237;28;8781;-48
2022/06/13 10:07:35;;;;;;;;;9.50;8.50;;;;;;;;5103896;27;8792;-50
2022/06/13 10:10:23;;;;;;;;;8.50;7.50;;;;;;;;5141109;27;8959;-50
2022/06/13 10:13:26;;;;;;;;;8.00;7.50;;;;;;;;5140972;27;8772;-49
2022/06/13 10:16:20;;;;;;;;;12.75;8.25;;;;;;;;5127178;27;8792;-49
2022/06/13 10:19:04;;;;;;;;;14.75;13.00;;;;;;;;5134571;27;8777;-49
2022/06/13 10:22:02;;;;;;;;;9.50;8.75;;;;;;;;5139645;27;9322;-48
2022/06/13 10:25:00;;;;;;;;;8.50;8.50;;;;;;;;5140259;27;9375;-50
2022/06/13 10:27:57;;;;;;;;;9.50;7.75;;;;;;;;5140267;27;8800;-49
2022/06/13 10:31:03;;;;;;;;;10.75;7.75;;;;;;;;5139235;27;8777;-49
2022/06/13 10:34:10;;;;;;;;;9.25;7.25;;;;;;;;5140391;27;8796;-50
2022/06/13 10:37:06;;;;;;;;;9.25;6.75;;;;;;;;5140468;27;8788;-47
2022/06/13 10:39:53;;;;;;;;;9.75;7.25;;;;;;;;5140315;27;9572;-49
2022/06/13 10:42:41;;;;;;;;;8.25;8.00;;;;;;;;5139611;27;9565;-51
2022/06/13 10:45:26;;;;;;;;;9.25;9.25;;;;;;;;5140197;27;8772;-51
2022/06/13 10:48:19;;;;;;;;;9.00;7.25;;;;;;;;5139982;27;8765;-50
2022/06/13 10:51:05;;;;;;;;;10.50;10.25;;;;;;;;5139918;27;8804;-50
2022/06/13 10:54:09;;;;;;;;;10.00;9.50;;;;;;;;5139539;27;8776;-52
2022/06/13 10:57:00;;;;;;;;;12.00;11.50;;;;;;;;5139817;27;8800;-49
2022/06/13 11:00:05;;;;;;;;;13.50;11.25;;;;;;;;5098860;28;8780;-51
2022/06/13 11:02:53;;;;;;;;;11.00;10.50;;;;;;;;5098203;28;8783;-50
2022/06/13 11:06:01;;;;;;;;;10.00;10.00;;;;;;;;5098747;28;8807;-49
2022/06/13 11:08:58;;;;;;;;;9.50;8.00;;;;;;;;5098468;28;8783;-47
2022/06/13 11:11:43;;;;;;;;;10.50;10.25;;;;;;;;5098550;28;8784;-48
2022/06/13 11:14:27;;;;;;;;;11.50;10.50;;;;;;;;5096049;28;8806;-47
2022/06/13 11:23:28;;;;;;;;;8.75;7.00;;;;;;;;5098372;28;8789;-50
2022/06/13 11:29:48;;;;;;;;;9.50;9.00;;;;;;;;5098331;28;8848;-49
2022/06/13 11:32:43;;;;;;;;;14.25;13.00;;;;;;;;5083286;28;8788;-47
2022/06/13 11:35:50;;;;;;;;;5.00;4.50;;;;;;;;5099394;28;8789;-49
2022/06/13 11:38:50;;;;;;;;;10.00;8.00;;;;;;;;5097516;28;8786;-49
2022/06/13 11:41:34;;;;;;;;;14.25;11.00;;;;;;;;5097442;28;8801;-49
2022/06/13 11:44:21;;;;;;;;;10.00;10.00;;;;;;;;5096315;28;8801;-49
2022/06/13 11:47:07;;;;;;;;;11.50;10.00;;;;;;;;5086676;28;8790;-50
2022/06/13 11:49:57;;;;;;;;;10.25;9.50;;;;;;;;5097327;28;8790;-49
2022/06/13 11:55:56;;;;;;;;;9.50;9.25;;;;;;;;5096652;28;8816;-51
2022/06/13 11:58:45;;;;;;;;;13.00;11.50;;;;;;;;5111425;27;8743;-48
2022/06/13 12:01:38;;;;;;;;;10.50;8.50;;;;;;;;5101685;27;8917;-50
2022/06/13 12:04:24;;;;;;;;;13.50;11.00;;;;;;;;5116050;27;8787;-49
2022/06/13 12:07:19;;;;;;;;;11.75;8.75;;;;;;;;5116755;27;8790;-49
2022/06/13 12:10:09;;;;;;;;;11.00;10.25;;;;;;;;5116267;27;8791;-52
2022/06/13 12:12:58;;;;;;;;;14.00;11.25;;;;;;;;5115415;27;9645;-49
2022/06/13 12:15:54;;;;;;;;;18.25;13.50;;;;;;;;5117015;27;8806;-50
2022/06/13 12:18:56;;;;;;;;;11.00;11.00;;;;;;;;5117267;27;8796;-48
2022/06/13 12:21:59;;;;;;;;;11.50;11.25;;;;;;;;5115543;27;8779;-49
2022/06/13 12:25:04;;;;;;;;;11.00;11.00;;;;;;;;5115681;27;8948;-50
2022/06/13 12:27:57;;;;;;;;;12.25;10.25;;;;;;;;5116425;27;8783;-52
2022/06/13 12:30:57;;;;;;;;;11.50;8.75;;;;;;;;5116015;27;8791;-52
2022/06/13 12:34:00;;;;;;;;;15.00;11.00;;;;;;;;5115210;27;8766;-51
2022/06/13 12:37:15;;;;;;;;;10.00;8.00;;;;;;;;5115467;27;8795;-48
2022/06/13 12:40:19;;;;;;;;;10.00;8.00;;;;;;;;5116797;27;8780;-50
2022/06/13 12:43:16;;;;;;;;;9.75;9.75;;;;;;;;5115621;27;8791;-47
2022/06/13 12:46:20;;;;;;;;;14.50;13.00;;;;;;;;5116622;27;8928;-47
2022/06/13 12:49:24;;;;;;;;;14.00;11.00;;;;;;;;5115787;27;8806;-50
2022/06/13 12:52:11;;;;;;;;;16.50;11.75;;;;;;;;5116089;27;8798;-49
2022/06/13 12:55:15;;;;;;;;;14.50;10.25;;;;;;;;5116016;27;8792;-51
2022/06/13 12:58:18;;;;;;;;;15.50;11.50;;;;;;;;5115328;27;8810;-50
2022/06/13 13:01:07;;;;;;;;;19.50;13.50;;;;;;;;5116801;27;8790;-51
2022/06/13 13:04:09;;;;;;;;;14.75;11.25;;;;;;;;5116359;27;8750;-48
2022/06/13 13:07:23;;;;;;;;;14.50;11.00;;;;;;;;5116370;28;8804;-49
2022/06/13 13:10:42;;;;;;;;;15.00;13.50;;;;;;;;5107612;28;8778;-49
2022/06/13 13:13:45;;;;;;;;;20.00;16.25;;;;;;;;5115734;28;8775;-48
2022/06/13 13:16:50;;;;;;;;;15.00;13.50;;;;;;;;5116665;28;9542;-48
2022/06/13 13:19:50;;;;;;;;;18.25;15.75;;;;;;;;5117127;28;8909;-48
2022/06/13 13:22:50;;;;;;;;;20.25;13.25;;;;;;;;5117192;28;9335;-51
2022/06/13 13:25:55;;;;;;;;;15.00;11.75;;;;;;;;5117099;28;8787;-52
2022/06/13 13:28:46;;;;;;;;;13.75;9.75;;;;;;;;5116807;28;8795;-48
2022/06/13 13:31:41;;;;;;;;;18.75;14.25;;;;;;;;5117017;28;8837;-48
2022/06/13 13:34:44;;;;;;;;;19.00;15.25;;;;;;;;5116953;28;8791;-50
2022/06/13 13:37:35;;;;;;;;;15.25;13.25;;;;;;;;5116788;28;8811;-50
2022/06/13 13:40:22;;;;;;;;;17.50;11.50;;;;;;;;5116814;28;8814;-49
2022/06/13 13:43:20;;;;;;;;;19.75;18.00;;;;;;;;5112107;28;8779;-49
2022/06/13 13:46:14;;;;;;;;;21.50;17.25;;;;;;;;5116702;28;8794;-49
2022/06/13 13:49:06;;;;;;;;;19.75;17.00;;;;;;;;5116646;28;8787;-49
2022/06/13 13:51:54;;;;;;;;;17.50;17.25;;;;;;;;5116868;28;8779;-49
2022/06/13 13:54:45;;;;;;;;;24.00;19.50;;;;;;;;5116849;28;8775;-48
2022/06/13 13:57:32;;;;;;;;;21.75;18.00;;;;;;;;5101062;28;8795;-51
2022/06/13 14:00:16;;;;;;;;;20.75;15.75;;;;;;;;5116742;28;8802;-50
2022/06/13 14:03:08;;;;;;;;;16.75;15.50;;;;;;;;5116727;28;8798;-50
2022/06/13 14:06:02;;;;;;;;;15.00;14.25;;;;;;;;5118576;27;8802;-49
2022/06/13 14:08:47;;;;;;;;;17.25;13.50;;;;;;;;5120618;27;8799;-49
2022/06/13 14:11:31;;;;;;;;;17.50;12.50;;;;;;;;5120516;27;8814;-47
2022/06/13 14:14:18;;;;;;;;;17.25;13.25;;;;;;;;5116466;27;8767;-52
2022/06/13 14:17:05;;;;;;;;;17.25;16.50;;;;;;;;5120378;27;8834;-48
2022/06/13 14:19:54;;;;;;;;;15.00;13.75;;;;;;;;5120437;27;8827;-48
2022/06/13 14:22:43;;;;;;;;;15.50;13.50;;;;;;;;5120758;27;8802;-51
2022/06/13 14:25:36;;;;;;;;;13.50;12.50;;;;;;;;5120384;27;8774;-51
2022/06/13 14:28:21;;;;;;;;;12.00;11.25;;;;;;;;5119529;27;8791;-51
2022/06/13 14:31:06;;;;;;;;;15.00;10.75;;;;;;;;5120246;27;8787;-52
2022/06/13 14:36:59;;;;;;;;;13.75;10.00;;;;;;;;5113571;27;9550;-50
2022/06/13 14:40:02;;;;;;;;;14.50;13.50;;;;;;;;5119652;27;8779;-49
2022/06/13 14:42:59;;;;;;;;;12.75;12.00;;;;;;;;5119651;27;8799;-51
2022/06/13 14:45:56;;;;;;;;;12.00;11.25;;;;;;;;5120638;27;8818;-49
2022/06/13 14:49:03;;;;;;;;;16.00;12.50;;;;;;;;5104533;27;8791;-52
2022/06/13 14:51:57;;;;;;;;;9.75;5.50;;;;;;;;5117333;27;8787;-50
2022/06/13 14:54:43;;;;;;;;;11.25;10.75;;;;;;;;5119623;27;8815;-50
2022/06/13 14:57:27;;;;;;;;;15.25;13.00;;;;;;;;5116116;27;8799;-51
2022/06/13 15:00:15;;;;;;;;;12.75;12.00;;;;;;;;5120051;27;8783;-51
2022/06/13 15:03:06;;;;;;;;;13.75;11.75;;;;;;;;5119457;27;8787;-51
2022/06/13 15:06:12;;;;;;;;;13.50;11.50;;;;;;;;5106959;27;9519;-51
2022/06/13 15:08:59;;;;;;;;;15.00;11.25;;;;;;;;5104038;27;8791;-52
2022/06/13 15:11:49;;;;;;;;;11.50;10.75;;;;;;;;5119455;27;8901;-53
2022/06/13 15:14:43;;;;;;;;;12.25;10.75;;;;;;;;5119084;27;9542;-54
2022/06/13 15:17:28;;;;;;;;;16.25;15.50;;;;;;;;5118429;27;8783;-52
2022/06/13 15:20:22;;;;;;;;;13.00;9.75;;;;;;;;5119438;27;8779;-55
2022/06/13 15:23:16;;;;;;;;;11.75;8.25;;;;;;;;5113496;27;8783;-54
2022/06/13 15:26:01;;;;;;;;;11.00;9.00;;;;;;;;5118077;27;8790;-54
2022/06/13 15:29:04;;;;;;;;;7.25;7.25;;;;;;;;5118800;27;8794;-55
2022/06/13 15:31:50;;;;;;;;;8.50;7.25;;;;;;;;5103422;27;8779;-56
2022/06/13 15:34:35;;;;;;;;;11.75;8.00;;;;;;;;5118764;27;8779;-55
2022/06/13 15:37:19;;;;;;;;;11.00;11.00;;;;;;;;5118736;27;8838;-55
2022/06/13 15:40:04;;;;;;;;;10.50;9.25;;;;;;;;5118576;27;8783;-53
2022/06/13 15:42:50;;;;;;;;;9.00;9.00;;;;;;;;5118801;27;8893;-55
2022/06/13 15:45:37;;;;;;;;;9.00;8.00;;;;;;;;5102580;27;9495;-53
2022/06/13 15:48:26;;;;;;;;;9.75;6.75;;;;;;;;5118346;27;8795;-54
2022/06/13 15:51:34;;;;;;;;;9.50;7.50;;;;;;;;5118404;27;8787;-52
2022/06/13 15:54:24;;;;;;;;;9.00;7.25;;;;;;;;5118254;27;8766;-55
2022/06/13 15:57:09;;;;;;;;;10.50;9.50;;;;;;;;5117910;27;8798;-56
2022/06/13 16:00:18;;;;;;;;;10.75;5.25;;;;;;;;5117822;27;8798;-55
2022/06/13 16:03:05;;;;;;;;;10.00;10.00;;;;;;;;5117810;27;8787;-53
2022/06/13 16:06:04;;;;;;;;;10.00;10.00;;;;;;;;5117395;27;8826;-55
2022/06/13 16:08:58;;;;;;;;;17.00;11.50;;;;;;;;5117942;27;8775;-56
2022/06/13 16:11:50;;;;;;;;;16.50;12.75;;;;;;;;5118069;27;8893;-55
2022/06/13 16:14:44;;;;;;;;;8.75;6.75;;;;;;;;5118056;27;8787;-52
2022/06/13 16:17:38;;;;;;;;;8.50;4.50;;;;;;;;5117647;27;9562;-55
2022/06/13 16:20:38;;;;;;;;;17.50;14.75;;;;;;;;5117793;27;8767;-56
2022/06/13 16:23:40;;;;;;;;;8.75;8.75;;;;;;;;5117757;27;8771;-54
2022/06/13 16:26:47;;;;;;;;;10.75;10.00;;;;;;;;5117664;27;8810;-56
2022/06/13 16:29:34;;;;;;;;;17.00;11.00;;;;;;;;5116888;27;8771;-54
2022/06/13 16:32:20;;;;;;;;;11.00;5.25;;;;;;;;5116799;27;8775;-55
2022/06/13 16:35:24;;;;;;;;;8.00;8.00;;;;;;;;5117527;27;8759;-54
2022/06/13 16:38:17;;;;;;;;;9.00;8.00;;;;;;;;5117960;27;8806;-56
2022/06/13 16:41:26;;;;;;;;;13.50;11.50;;;;;;;;5117569;27;8778;-55
2022/06/13 16:44:14;;;;;;;;;13.00;10.75;;;;;;;;5117621;27;8771;-54
2022/06/13 16:47:11;;;;;;;;;9.50;8.75;;;;;;;;5117732;27;8798;-53
2022/06/13 16:50:25;;;;;;;;;14.00;12.75;;;;;;;;5117612;27;8775;-55
2022/06/13 16:53:12;;;;;;;;;14.25;12.50;;;;;;;;5108912;27;8798;-55
2022/06/13 16:55:58;;;;;;;;;13.00;9.50;;;;;;;;5117341;27;8945;-53
2022/06/13 16:59:06;;;;;;;;;11.50;9.00;;;;;;;;5116912;27;8806;-54
2022/06/13 17:01:53;;;;;;;;;12.50;11.00;;;;;;;;5117601;27;8803;-53
2022/06/13 17:04:50;;;;;;;;;13.50;12.25;;;;;;;;5116968;27;9518;-52
2022/06/13 17:08:00;;;;;;;;;16.75;12.75;;;;;;;;5117187;28;8782;-56
2022/06/13 17:10:46;;;;;;;;;18.25;12.75;;;;;;;;5117098;28;9558;-53
2022/06/13 17:13:51;;;;;;;;;11.00;6.00;;;;;;;;5117289;28;8775;-54
2022/06/13 17:16:59;;;;;;;;;14.25;11.25;;;;;;;;5116993;28;8786;-53
2022/06/13 17:19:50;;;;;;;;;40.50;30.25;;;;;;;;5116771;28;8767;-55
2022/06/13 17:22:48;;;;;;;;;47.00;37.75;;;;;;;;5103363;28;8723;-55
2022/06/13 17:32:13;;;;;;;;;14.50;12.00;;;;;;;;5117061;28;8771;-56
2022/06/13 17:34:59;;;;;;;;;3.25;3.25;;;;;;;;5117004;28;8783;-55
2022/06/13 17:38:06;;;;;;;;;14.50;14.50;;;;;;;;5116586;28;8810;-55
2022/06/13 17:40:52;;;;;;;;;14.75;13.25;;;;;;;;5118633;27;8779;-50
2022/06/13 17:43:41;;;;;;;;;16.25;13.00;;;;;;;;5121158;27;8779;-56
2022/06/13 17:46:28;;;;;;;;;18.25;11.50;;;;;;;;5121175;27;8802;-56